Terminal Aerodrome Forecast
Issued by NWS Tuscon, AZ

Home | Current Version | Previous Version | Text Only | Print | Product List | Glossary On
Versions: 1 2 3 4 5 6 7 8 9 10 11 12 13
697
FTUS45 KTWC 250520
TAFDUG
TAF
KDUG 250520Z 2506/2606 35009KT P6SM BKN250
     FM251100 VRB04KT P6SM BKN250
     FM251900 19008KT P6SM BKN250
     FM260100 30008KT P6SM SCT250=

USA.gov is the U.S. government's official web portal to all federal, state and local government web resources and services.